Hafnia Victoria — 9V3232 — position and weather

sailwx.info

Track history (hours):
 
Tides and Currents Weather Stations Pressure Air Temp Water Temp Dewpoint Dewpoint Depression Visibility Wind Speed Wind Dir Waves Ship Positions

Hafnia Victoria

Last reported at 2018-Aug-19 13:31 UTC. Time now 2018-Aug-19 15:19 UTC.
Position N 51°54' E 003°06'.

Length 182 m; draft 7.2 m.

Type: Ship. MMSI: 566024000.

Date/timePositionNaut miles runAvg speedWind from/ knotsBaromVisibWave heightAir tempDewpointWater temp
2018-Aug-19 13:31N 51°54' E 003°06'511.7
2018-Aug-19 13:05N 51°50' E 003°09'311.9
2018-Aug-19 12:48N 51°47' E 003°12'410.4
2018-Aug-19 12:27N 51°44' E 003°15'510.6
2018-Aug-19 11:59N 51°40' E 003°19'612.5
2018-Aug-19 11:30N 51°34' E 003°24'712.8
2018-Aug-19 11:00N 51°29' E 003°30'5 9.6
2018-Aug-19 10:31N 51°26' E 003°35'5 9.1
2018-Aug-19 10:00N 51°25' E 003°43'713.7
2018-Aug-19 09:31N 51°21' E 003°52'714.0
2018-Aug-19 09:00N 51°26' E 003°59'612.1
2018-Aug-19 08:30N 51°22' E 004°06'4 8.9
2018-Aug-19 08:00N 51°22' E 004°13'510.1
2018-Aug-19 07:30N 51°18' E 004°18'2 3.7
2018-Aug-19 07:00N 51°17' E 004°20'0 0.0
2018-Aug-19 06:26N 51°17' E 004°20'0 0.9
2018-Aug-19 06:00N 51°16' E 004°20'1 1.0
2018-Aug-19 05:26N 51°16' E 004°21'0 0.0
2018-Aug-19 04:53N 51°16' E 004°21'0 0.0
2018-Aug-19 04:26N 51°16' E 004°21'0 0.0
2018-Aug-19 03:59N 51°16' E 004°21'0 0.0
2018-Aug-19 03:29N 51°16' E 004°21'0 0.0
2018-Aug-19 02:56N 51°16' E 004°21'0 0.0
2018-Aug-19 02:08N 51°16' E 004°21'0 0.0
2018-Aug-19 01:59N 51°16' E 004°21'0 0.0
2018-Aug-19 01:08N 51°16' E 004°21'0 0.0
2018-Aug-19 00:59N 51°16' E 004°21'0 0.0
2018-Aug-19 00:23N 51°16' E 004°21'0 0.0
2018-Aug-18 23:53N 51°16' E 004°21'0 0.0
2018-Aug-18 23:26N 51°16' E 004°21'0 0.0
2018-Aug-18 22:53N 51°16' E 004°21'0 0.0
2018-Aug-18 22:26N 51°16' E 004°21'0 0.0
2018-Aug-18 21:59N 51°16' E 004°21'0 0.0
2018-Aug-18 21:29N 51°16' E 004°21'0 0.0
2018-Aug-18 20:59N 51°16' E 004°21'0 0.0
2018-Aug-18 20:26N 51°16' E 004°21'0 0.0
2018-Aug-18 19:59N 51°16' E 004°21'0 0.0
2018-Aug-18 19:29N 51°16' E 004°21'0 0.0
2018-Aug-18 18:53N 51°16' E 004°21'0 0.0
2018-Aug-18 18:29N 51°16' E 004°21'0 0.0
2018-Aug-18 17:56N 51°16' E 004°21'0 0.0
2018-Aug-18 17:29N 51°16' E 004°21'0 0.0
2018-Aug-18 16:59N 51°16' E 004°21'0 0.0
2018-Aug-18 16:29N 51°16' E 004°21'0 0.0
2018-Aug-18 15:53N 51°16' E 004°21'0 0.0
2018-Aug-18 15:29N 51°16' E 004°21'0 0.0
2018-Aug-18 14:56N 51°16' E 004°21'0 0.0
2018-Aug-18 14:29N 51°16' E 004°21'0 0.0
2018-Aug-18 13:56N 51°16' E 004°21'0 0.0
2018-Aug-18 13:14N 51°16' E 004°21'0 0.0
2018-Aug-18 12:59N 51°16' E 004°21'0 0.0
2018-Aug-18 12:23N 51°16' E 004°21'0 0.0
2018-Aug-18 11:56N 51°16' E 004°21'0 0.0
2018-Aug-18 11:29N 51°16' E 004°21'0 0.0
2018-Aug-18 10:56N 51°16' E 004°21'0 0.0
2018-Aug-18 10:29N 51°16' E 004°21'0 0.0
2018-Aug-18 09:53N 51°16' E 004°21'0 0.0
2018-Aug-18 09:29N 51°16' E 004°21'0 0.0
2018-Aug-18 08:59N 51°16' E 004°21'0 0.0
2018-Aug-18 08:29N 51°16' E 004°21'0 0.0
2018-Aug-18 07:53N 51°16' E 004°21'0 0.0
2018-Aug-18 07:20N 51°16' E 004°21'0 0.0
2018-Aug-18 06:59N 51°16' E 004°21'0 0.0
2018-Aug-18 06:29N 51°16' E 004°21'0 0.0
2018-Aug-18 05:56N 51°16' E 004°21'0 0.0
2018-Aug-18 05:26N 51°16' E 004°21'0 0.0
2018-Aug-18 04:59N 51°16' E 004°21'0 0.0
2018-Aug-18 04:20N 51°16' E 004°21'0 0.0
2018-Aug-18 03:59N 51°16' E 004°21'0 0.0
2018-Aug-18 03:23N 51°16' E 004°21'0 0.0
2018-Aug-18 02:59N 51°16' E 004°21'0 0.0
2018-Aug-18 02:29N 51°16' E 004°21'0 0.0
2018-Aug-18 01:59N 51°16' E 004°21'0 0.0
2018-Aug-18 01:26N 51°16' E 004°21'0 0.0
2018-Aug-18 00:56N 51°16' E 004°21'0 0.0
2018-Aug-18 00:29N 51°16' E 004°21'0 0.0
2018-Aug-17 23:59N 51°16' E 004°21'0 0.0
2018-Aug-17 23:29N 51°16' E 004°21'0 0.0
2018-Aug-17 22:56N 51°16' E 004°21'0 0.0
2018-Aug-17 22:29N 51°16' E 004°21'0 0.0
2018-Aug-17 21:59N 51°16' E 004°21'0 0.0
2018-Aug-17 21:29N 51°16' E 004°21'0 0.0
2018-Aug-17 20:53N 51°16' E 004°21'0 0.0
2018-Aug-17 20:29N 51°16' E 004°21'0 0.0
2018-Aug-17 19:59N 51°16' E 004°21'0 0.0
2018-Aug-17 19:29N 51°16' E 004°21'0 0.0
2018-Aug-17 18:59N 51°16' E 004°21'0 0.0
2018-Aug-17 18:29N 51°16' E 004°21'0 0.0
2018-Aug-17 17:59N 51°16' E 004°21'0 0.0
2018-Aug-17 17:29N 51°16' E 004°21'0 0.0
2018-Aug-17 16:59N 51°16' E 004°21'0 0.0
2018-Aug-17 16:29N 51°16' E 004°21'0 0.0
2018-Aug-17 15:53N 51°16' E 004°21'0 0.0
2018-Aug-17 15:23N 51°16' E 004°21'0 0.0
2018-Aug-17 14:53N 51°16' E 004°21'0 0.0
2018-Aug-17 14:29N 51°16' E 004°21'0 0.0
2018-Aug-17 13:26N 51°16' E 004°21'0 0.0
2018-Aug-17 12:59N 51°16' E 004°21'0 0.0
2018-Aug-17 12:26N 51°16' E 004°21'0 0.0
2018-Aug-17 11:59N 51°16' E 004°21'0 0.0
2018-Aug-17 11:29N 51°16' E 004°21'0 0.0
2018-Aug-17 10:53N 51°16' E 004°21'0 0.0
2018-Aug-17 10:29N 51°16' E 004°21'0 0.0
2018-Aug-17 09:59N 51°16' E 004°21'0 0.0
2018-Aug-17 09:23N 51°16' E 004°21'0 0.0
2018-Aug-17 08:59N 51°16' E 004°21'0 0.2
2018-Aug-17 08:30N 51°16' E 004°21'1 1.7
2018-Aug-17 08:00N 51°16' E 004°21'0 0.3
2018-Aug-17 07:28N 51°16' E 004°21'0 0.0
2018-Aug-17 06:58N 51°16' E 004°21'0 0.0
2018-Aug-17 06:28N 51°16' E 004°21'0 0.0
2018-Aug-17 05:55N 51°16' E 004°21'0 0.0
2018-Aug-17 05:25N 51°16' E 004°21'0 0.0
2018-Aug-17 04:58N 51°16' E 004°21'0 0.0
2018-Aug-17 04:22N 51°16' E 004°21'0 0.0
2018-Aug-17 03:58N 51°16' E 004°21'0 0.0
2018-Aug-17 03:25N 51°16' E 004°21'0 0.0
2018-Aug-17 02:55N 51°16' E 004°21'0 0.0
2018-Aug-17 02:19N 51°16' E 004°21'0 0.0
2018-Aug-17 01:58N 51°16' E 004°21'0 0.0
2018-Aug-17 01:22N 51°16' E 004°21'0 0.0
2018-Aug-17 00:58N 51°16' E 004°21'0 0.0
2018-Aug-17 00:19N 51°16' E 004°21'0 0.0
2018-Aug-16 23:55N 51°16' E 004°21'0 0.0
2018-Aug-16 23:25N 51°16' E 004°21'0 0.0
2018-Aug-16 23:00N 51°16' E 004°21'1 1.9
2018-Aug-16 22:31N 51°16' E 004°20'3 5.5
2018-Aug-16 22:00N 51°19' E 004°19'2 3.9
2018-Aug-16 21:29N 51°21' E 004°17'0 0.0
2018-Aug-16 21:00N 51°21' E 004°17'0 0.7
2018-Aug-16 20:30N 51°21' E 004°16'3 6.1
2018-Aug-16 20:01N 51°23' E 004°13'5 9.3
2018-Aug-16 19:30N 51°22' E 004°06'510.7
2018-Aug-16 19:01N 51°26' E 003°60'612.0
2018-Aug-16 18:31N 51°21' E 003°54'612.2
2018-Aug-16 18:00N 51°22' E 003°44'611.3
2018-Aug-16 17:31N 51°26' E 003°38'5 9.3
2018-Aug-16 17:01N 51°25' E 003°31'4 8.9
2018-Aug-16 16:30N 51°25' E 003°24'714.3
2018-Aug-16 16:00N 51°24' E 003°12'814.4
2018-Aug-16 15:29N 51°24' E 003°00'714.8
2018-Aug-16 14:59N 51°22' E 002°49'610.9
2018-Aug-16 14:27N 51°22' E 002°40'3 6.1
2018-Aug-16 13:58N 51°23' E 002°35'2 4.0
2018-Aug-16 13:28N 51°25' E 002°35'0 0.2
2018-Aug-16 12:58N 51°25' E 002°35'0 0.1
2018-Aug-16 12:19N 51°25' E 002°35'0 0.5
2018-Aug-16 11:58N 51°25' E 002°35'0 0.0
2018-Aug-16 11:13N 51°25' E 002°35'0 0.0
2018-Aug-16 10:49N 51°25' E 002°35'0 0.0
2018-Aug-16 10:28N 51°25' E 002°35'0 0.1
2018-Aug-16 09:55N 51°25' E 002°35'0 0.3
2018-Aug-16 09:22N 51°25' E 002°35'0 0.2
2018-Aug-16 08:58N 51°25' E 002°35'0 0.1
2018-Aug-16 08:22N 51°25' E 002°35'0 0.0
2018-Aug-16 07:58N 51°25' E 002°35'0 0.0
2018-Aug-16 07:28N 51°25' E 002°35'0 0.0
2018-Aug-16 06:52N 51°25' E 002°35'0 0.0
2018-Aug-16 06:25N 51°25' E 002°35'0 0.0
2018-Aug-16 05:58N 51°25' E 002°35'0 0.0
2018-Aug-16 05:28N 51°25' E 002°35'0 0.0
2018-Aug-16 04:58N 51°25' E 002°35'0 0.0
2018-Aug-16 04:28N 51°25' E 002°35'0 0.0
2018-Aug-16 03:58N 51°25' E 002°35'0 0.0
2018-Aug-16 03:25N 51°25' E 002°35'0 0.0
2018-Aug-16 02:58N 51°25' E 002°35'0 0.0
2018-Aug-16 02:19N 51°25' E 002°35'0 0.0
2018-Aug-16 01:52N 51°25' E 002°35'0 0.3
2018-Aug-16 01:25N 51°25' E 002°35'0 0.2
2018-Aug-16 00:58N 51°25' E 002°35'0 0.1
2018-Aug-16 00:28N 51°25' E 002°35'0 0.0
2018-Aug-15 23:52N 51°25' E 002°35'0 0.0
2018-Aug-15 23:22N 51°25' E 002°35'0 0.2
2018-Aug-15 22:31N 51°25' E 002°35'0 0.1
2018-Aug-15 22:28N 51°25' E 002°35'0 0.2
2018-Aug-15 21:55N 51°25' E 002°35'0 0.3
2018-Aug-15 21:28N 51°25' E 002°35'0 0.2
2018-Aug-15 20:58N 51°25' E 002°35'0 0.1
2018-Aug-15 20:28N 51°25' E 002°35'0 0.0
2018-Aug-15 19:58N 51°25' E 002°35'0 0.0
2018-Aug-15 19:22N 51°25' E 002°35'0 0.0
2018-Aug-15 18:58N 51°25' E 002°35'0 0.0
2018-Aug-15 18:28N 51°25' E 002°35'0 0.0
2018-Aug-15 17:58N 51°25' E 002°35'0 0.1
2018-Aug-15 17:28N 51°25' E 002°35'0 0.0
2018-Aug-15 16:58N 51°25' E 002°35'0 0.0
2018-Aug-15 16:25N 51°25' E 002°35'0 0.0
2018-Aug-15 15:58N 51°25' E 002°35'0 0.0
2018-Aug-15 15:28N 51°25' E 002°35'0 0.0
2018-Aug-15 14:58N 51°25' E 002°35'0 0.0
2018-Aug-15 14:28N 51°25' E 002°35'0 0.1
2018-Aug-15 13:58N 51°25' E 002°35'0 0.3
2018-Aug-15 13:28N 51°25' E 002°35'0 0.2
2018-Aug-15 12:58N 51°25' E 002°35'0 0.0
2018-Aug-15 12:22N 51°25' E 002°35'0 0.0
2018-Aug-15 11:58N 51°25' E 002°35'0 0.0
2018-Aug-15 11:16N 51°25' E 002°35'0 0.0
2018-Aug-15 10:49N 51°25' E 002°35'0 0.0
2018-Aug-15 10:28N 51°25' E 002°35'0 0.1
2018-Aug-15 09:10N 51°25' E 002°35'0 0.1
2018-Aug-15 08:58N 51°25' E 002°35'0 0.2
2018-Aug-15 07:46N 51°25' E 002°35'0 0.0
2018-Aug-15 07:28N 51°25' E 002°35'0 0.1
2018-Aug-15 06:58N 51°25' E 002°35'0 0.0
2018-Aug-15 06:25N 51°25' E 002°35'0 0.0
2018-Aug-15 05:58N 51°25' E 002°35'0 0.0
2018-Aug-15 05:28N 51°25' E 002°35'0 0.0
2018-Aug-15 04:43N 51°25' E 002°35'0 0.1
2018-Aug-15 04:28N 51°25' E 002°35'0 0.0
2018-Aug-15 03:46N 51°25' E 002°35'0 0.1
2018-Aug-15 03:28N 51°25' E 002°35'0 0.0
2018-Aug-15 02:58N 51°25' E 002°35'0 0.0
2018-Aug-15 02:25N 51°25' E 002°35'0 0.0
2018-Aug-15 01:58N 51°25' E 002°35'0 0.1
2018-Aug-15 01:25N 51°25' E 002°35'0 0.3
2018-Aug-15 00:58N 51°25' E 002°35'0 0.2
2018-Aug-15 00:28N 51°25' E 002°35'0 0.1
2018-Aug-14 23:49N 51°25' E 002°35'0 0.0
2018-Aug-14 23:16N 51°25' E 002°35'0 0.0
2018-Aug-14 22:28N 51°25' E 002°35'0 0.1
2018-Aug-14 21:40N 51°25' E 002°35'0 0.1
2018-Aug-14 21:28N 51°25' E 002°35'0 0.1
2018-Aug-14 20:46N 51°25' E 002°35'0 0.3
2018-Aug-14 20:25N 51°25' E 002°35'0 0.3
2018-Aug-14 19:58N 51°25' E 002°35'0 0.1
2018-Aug-14 19:28N 51°25' E 002°35'0 0.0
2018-Aug-14 18:58N 51°25' E 002°35'0 0.0
2018-Aug-14 18:28N 51°25' E 002°35'0 0.0
2018-Aug-14 17:58N 51°25' E 002°35'0 0.0
2018-Aug-14 17:25N 51°25' E 002°35'0 0.0
2018-Aug-14 16:55N 51°25' E 002°35'0 0.0
2018-Aug-14 16:25N 51°25' E 002°35'0 0.0
2018-Aug-14 15:58N 51°25' E 002°35'0 0.0
2018-Aug-14 15:28N 51°25' E 002°35'0 0.0
2018-Aug-14 14:52N 51°25' E 002°35'0 0.0
2018-Aug-14 14:25N 51°25' E 002°35'0 0.1
2018-Aug-14 13:55N 51°25' E 002°35'0 0.1
2018-Aug-14 13:28N 51°25' E 002°35'0 0.2
2018-Aug-14 12:58N 51°25' E 002°35'0 0.3
2018-Aug-14 12:28N 51°25' E 002°35'0 0.0
2018-Aug-14 11:37N 51°25' E 002°35'0 0.0
2018-Aug-14 11:25N 51°25' E 002°35'0 0.0
2018-Aug-14 10:52N 51°25' E 002°35'0 0.0
2018-Aug-14 10:28N 51°25' E 002°35'0 0.0
2018-Aug-14 09:25N 51°25' E 002°35'0 0.0
2018-Aug-14 07:55N 51°25' E 002°35'0 0.2
2018-Aug-14 07:22N 51°25' E 002°35'0 0.4
2018-Aug-14 06:55N 51°25' E 002°35'0 0.1
2018-Aug-14 06:25N 51°25' E 002°35'0 0.1
2018-Aug-14 05:55N 51°25' E 002°35'0 0.0
2018-Aug-14 05:28N 51°25' E 002°35'0 0.0
2018-Aug-14 04:58N 51°25' E 002°35'0 0.0
2018-Aug-14 04:28N 51°25' E 002°35'0 0.0
2018-Aug-14 03:55N 51°25' E 002°35'0 0.0
2018-Aug-14 03:28N 51°25' E 002°35'0 0.0
2018-Aug-14 02:58N 51°25' E 002°35'0 0.0
2018-Aug-14 02:25N 51°25' E 002°35'0 0.0
2018-Aug-14 01:58N 51°25' E 002°35'0 0.0
2018-Aug-14 01:22N 51°25' E 002°35'0 0.2
2018-Aug-14 00:46N 51°25' E 002°35'0 0.1
2018-Aug-14 00:28N 51°25' E 002°35'0 0.3
2018-Aug-13 23:46N 51°25' E 002°35'0 0.1
2018-Aug-13 23:19N 51°25' E 002°35'0 0.0
2018-Aug-13 22:55N 51°25' E 002°35'0 0.0
2018-Aug-13 21:55N 51°25' E 002°35'0 0.0
2018-Aug-13 21:22N 51°25' E 002°35'0 0.0
2018-Aug-13 20:55N 51°25' E 002°35'0 0.1
2018-Aug-13 20:28N 51°25' E 002°35'0 0.1
2018-Aug-13 19:58N 51°25' E 002°35'0 0.4
2018-Aug-13 19:28N 51°25' E 002°35'0 0.2
2018-Aug-13 18:58N 51°25' E 002°35'0 0.0
2018-Aug-13 17:49N 51°25' E 002°35'0 0.0
2018-Aug-13 17:28N 51°25' E 002°35'0 0.1
2018-Aug-13 16:58N 51°25' E 002°35'0 0.0
2018-Aug-13 16:28N 51°25' E 002°35'0 0.0
2018-Aug-13 15:52N 51°25' E 002°35'0 0.0
2018-Aug-13 15:22N 51°25' E 002°35'0 0.0
2018-Aug-13 14:58N 51°25' E 002°35'0 0.0
2018-Aug-13 14:28N 51°25' E 002°35'0 0.0
2018-Aug-13 13:58N 51°25' E 002°35'0 0.0
2018-Aug-13 13:28N 51°25' E 002°35'0 0.0
2018-Aug-13 12:58N 51°25' E 002°35'0 0.1
2018-Aug-13 12:28N 51°25' E 002°35'0 0.4
2018-Aug-13 11:58N 51°25' E 002°35'0 0.2
2018-Aug-13 11:25N 51°25' E 002°35'0 0.0
2018-Aug-13 10:22N 51°25' E 002°35'0 0.0
2018-Aug-13 09:58N 51°25' E 002°35'0 0.2
2018-Aug-13 09:22N 51°25' E 002°35'1 2.5
2018-Aug-13 08:53N 51°24' E 002°34'3 7.6
2018-Aug-13 08:30N 51°22' E 002°30'5 9.7
2018-Aug-13 07:59N 51°20' E 002°23'510.2
2018-Aug-13 07:30N 51°18' E 002°16'510.7
2018-Aug-13 07:00N 51°15' E 002°09'510.9
2018-Aug-13 06:30N 51°12' E 002°01'611.1
2018-Aug-13 06:01N 51°09' E 001°54'611.2
2018-Aug-13 05:31N 51°06' E 001°46'611.7
2018-Aug-13 05:00N 51°02' E 001°39'612.1
2018-Aug-13 04:30N 50°58' E 001°32'612.8
2018-Aug-13 04:00N 50°52' E 001°27'1012.8
2018-Aug-13 03:15N 50°43' E 001°23'13913.4
2018-Aug-12 16:52N 49°58' W 002°03'43 9.2
2018-Aug-12 12:12N 49°45' W 003°06'410.4
2018-Aug-12 11:51N 49°43' W 003°11'410.5
2018-Aug-12 11:30N 49°41' W 003°16'13312.9
2018-Aug-12 01:12N 48°22' W 005°59'312.7
2018-Aug-12 00:59N 48°20' W 006°01'812.4
2018-Aug-12 00:20N 48°13' W 006°07'412.1
2018-Aug-11 23:58N 48°09' W 006°10'1411.7
2018-Aug-11 22:49N 47°58' W 006°20'1111.2
2018-Aug-11 21:48N 47°48' W 006°29'810.1
2018-Aug-11 20:59N 47°41' W 006°35'1410.2
2018-Aug-11 19:38N 47°29' W 006°45'50411.2
2018-Aug-09 22:32N 39°24' W 009°55'110.2
2018-Aug-09 22:27N 39°23' W 009°55'4 9.6
2018-Aug-09 22:00N 39°19' W 009°56'510.1
2018-Aug-09 21:30N 39°14' W 009°56'510.0
2018-Aug-09 21:00N 39°09' W 009°56'5 9.9
2018-Aug-09 20:30N 39°04' W 009°56'510.0
2018-Aug-09 20:01N 38°59' W 009°56'510.0
2018-Aug-09 19:30N 38°54' W 009°56'510.1
2018-Aug-09 19:00N 38°49' W 009°56'5 9.8
2018-Aug-09 18:31N 38°44' W 009°56'510.0
2018-Aug-09 18:01N 38°39' W 009°55'510.1
2018-Aug-09 17:30N 38°34' W 009°53'510.0
2018-Aug-09 17:01N 38°29' W 009°52'510.0
2018-Aug-09 16:30N 38°24' W 009°51'5 9.9
2018-Aug-09 16:01N 38°19' W 009°49'5 9.9
2018-Aug-09 15:31N 38°15' W 009°48'5 9.9
2018-Aug-09 15:00N 38°10' W 009°46'5 9.9
2018-Aug-09 14:31N 38°05' W 009°45'510.0
2018-Aug-09 14:01N 37°60' W 009°44'  
Track history (hours):
 
Tides and Currents Weather Stations Pressure Air Temp Water Temp Dewpoint Dewpoint Depression Visibility Wind Speed Wind Dir Waves Ship Positions

Hafnia Victoria

Last reported at 2018-Aug-19 13:31 UTC. Time now 2018-Aug-19 15:19 UTC.
Position N 51°54' E 003°06'.

Length 182 m; draft 7.2 m.

Type: Ship. MMSI: 566024000.

Date/timePositionNaut miles runAvg speedWind from/ knotsBaromVisibWave heightAir tempDewpointWater temp
2018-Aug-19 13:31N 51°54' E 003°06'511.7
2018-Aug-19 13:05N 51°50' E 003°09'311.9
2018-Aug-19 12:48N 51°47' E 003°12'410.4
2018-Aug-19 12:27N 51°44' E 003°15'510.6
2018-Aug-19 11:59N 51°40' E 003°19'612.5
2018-Aug-19 11:30N 51°34' E 003°24'712.8
2018-Aug-19 11:00N 51°29' E 003°30'5 9.6
2018-Aug-19 10:31N 51°26' E 003°35'5 9.1
2018-Aug-19 10:00N 51°25' E 003°43'713.7
2018-Aug-19 09:31N 51°21' E 003°52'714.0
2018-Aug-19 09:00N 51°26' E 003°59'612.1
2018-Aug-19 08:30N 51°22' E 004°06'4 8.9
2018-Aug-19 08:00N 51°22' E 004°13'510.1
2018-Aug-19 07:30N 51°18' E 004°18'2 3.7
2018-Aug-19 07:00N 51°17' E 004°20'0 0.0
2018-Aug-19 06:26N 51°17' E 004°20'0 0.9
2018-Aug-19 06:00N 51°16' E 004°20'1 1.0
2018-Aug-19 05:26N 51°16' E 004°21'0 0.0
2018-Aug-19 04:53N 51°16' E 004°21'0 0.0
2018-Aug-19 04:26N 51°16' E 004°21'0 0.0
2018-Aug-19 03:59N 51°16' E 004°21'0 0.0
2018-Aug-19 03:29N 51°16' E 004°21'0 0.0
2018-Aug-19 02:56N 51°16' E 004°21'0 0.0
2018-Aug-19 02:08N 51°16' E 004°21'0 0.0
2018-Aug-19 01:59N 51°16' E 004°21'0 0.0
2018-Aug-19 01:08N 51°16' E 004°21'0 0.0
2018-Aug-19 00:59N 51°16' E 004°21'0 0.0
2018-Aug-19 00:23N 51°16' E 004°21'0 0.0
2018-Aug-18 23:53N 51°16' E 004°21'0 0.0
2018-Aug-18 23:26N 51°16' E 004°21'0 0.0
2018-Aug-18 22:53N 51°16' E 004°21'0 0.0
2018-Aug-18 22:26N 51°16' E 004°21'0 0.0
2018-Aug-18 21:59N 51°16' E 004°21'0 0.0
2018-Aug-18 21:29N 51°16' E 004°21'0 0.0
2018-Aug-18 20:59N 51°16' E 004°21'0 0.0
2018-Aug-18 20:26N 51°16' E 004°21'0 0.0
2018-Aug-18 19:59N 51°16' E 004°21'0 0.0
2018-Aug-18 19:29N 51°16' E 004°21'0 0.0
2018-Aug-18 18:53N 51°16' E 004°21'0 0.0
2018-Aug-18 18:29N 51°16' E 004°21'0 0.0
2018-Aug-18 17:56N 51°16' E 004°21'0 0.0
2018-Aug-18 17:29N 51°16' E 004°21'0 0.0
2018-Aug-18 16:59N 51°16' E 004°21'0 0.0
2018-Aug-18 16:29N 51°16' E 004°21'0 0.0
2018-Aug-18 15:53N 51°16' E 004°21'0 0.0
2018-Aug-18 15:29N 51°16' E 004°21'0 0.0
2018-Aug-18 14:56N 51°16' E 004°21'0 0.0
2018-Aug-18 14:29N 51°16' E 004°21'0 0.0
2018-Aug-18 13:56N 51°16' E 004°21'0 0.0
2018-Aug-18 13:14N 51°16' E 004°21'0 0.0
2018-Aug-18 12:59N 51°16' E 004°21'0 0.0
2018-Aug-18 12:23N 51°16' E 004°21'0 0.0
2018-Aug-18 11:56N 51°16' E 004°21'0 0.0
2018-Aug-18 11:29N 51°16' E 004°21'0 0.0
2018-Aug-18 10:56N 51°16' E 004°21'0 0.0
2018-Aug-18 10:29N 51°16' E 004°21'0 0.0
2018-Aug-18 09:53N 51°16' E 004°21'0 0.0
2018-Aug-18 09:29N 51°16' E 004°21'0 0.0
2018-Aug-18 08:59N 51°16' E 004°21'0 0.0
2018-Aug-18 08:29N 51°16' E 004°21'0 0.0
2018-Aug-18 07:53N 51°16' E 004°21'0 0.0
2018-Aug-18 07:20N 51°16' E 004°21'0 0.0
2018-Aug-18 06:59N 51°16' E 004°21'0 0.0
2018-Aug-18 06:29N 51°16' E 004°21'0 0.0
2018-Aug-18 05:56N 51°16' E 004°21'0 0.0
2018-Aug-18 05:26N 51°16' E 004°21'0 0.0
2018-Aug-18 04:59N 51°16' E 004°21'0 0.0
2018-Aug-18 04:20N 51°16' E 004°21'0 0.0
2018-Aug-18 03:59N 51°16' E 004°21'0 0.0
2018-Aug-18 03:23N 51°16' E 004°21'0 0.0
2018-Aug-18 02:59N 51°16' E 004°21'0 0.0
2018-Aug-18 02:29N 51°16' E 004°21'0 0.0
2018-Aug-18 01:59N 51°16' E 004°21'0 0.0
2018-Aug-18 01:26N 51°16' E 004°21'0 0.0
2018-Aug-18 00:56N 51°16' E 004°21'0 0.0
2018-Aug-18 00:29N 51°16' E 004°21'0 0.0
2018-Aug-17 23:59N 51°16' E 004°21'0 0.0
2018-Aug-17 23:29N 51°16' E 004°21'0 0.0
2018-Aug-17 22:56N 51°16' E 004°21'0 0.0
2018-Aug-17 22:29N 51°16' E 004°21'0 0.0
2018-Aug-17 21:59N 51°16' E 004°21'0 0.0
2018-Aug-17 21:29N 51°16' E 004°21'0 0.0
2018-Aug-17 20:53N 51°16' E 004°21'0 0.0
2018-Aug-17 20:29N 51°16' E 004°21'0 0.0
2018-Aug-17 19:59N 51°16' E 004°21'0 0.0
2018-Aug-17 19:29N 51°16' E 004°21'0 0.0
2018-Aug-17 18:59N 51°16' E 004°21'0 0.0
2018-Aug-17 18:29N 51°16' E 004°21'0 0.0
2018-Aug-17 17:59N 51°16' E 004°21'0 0.0
2018-Aug-17 17:29N 51°16' E 004°21'0 0.0
2018-Aug-17 16:59N 51°16' E 004°21'0 0.0
2018-Aug-17 16:29N 51°16' E 004°21'0 0.0
2018-Aug-17 15:53N 51°16' E 004°21'0 0.0
2018-Aug-17 15:23N 51°16' E 004°21'0 0.0
2018-Aug-17 14:53N 51°16' E 004°21'0 0.0
2018-Aug-17 14:29N 51°16' E 004°21'0 0.0
2018-Aug-17 13:26N 51°16' E 004°21'0 0.0
2018-Aug-17 12:59N 51°16' E 004°21'0 0.0
2018-Aug-17 12:26N 51°16' E 004°21'0 0.0
2018-Aug-17 11:59N 51°16' E 004°21'0 0.0
2018-Aug-17 11:29N 51°16' E 004°21'0 0.0
2018-Aug-17 10:53N 51°16' E 004°21'0 0.0
2018-Aug-17 10:29N 51°16' E 004°21'0 0.0
2018-Aug-17 09:59N 51°16' E 004°21'0 0.0
2018-Aug-17 09:23N 51°16' E 004°21'0 0.0
2018-Aug-17 08:59N 51°16' E 004°21'0 0.2
2018-Aug-17 08:30N 51°16' E 004°21'1 1.7
2018-Aug-17 08:00N 51°16' E 004°21'0 0.3
2018-Aug-17 07:28N 51°16' E 004°21'0 0.0
2018-Aug-17 06:58N 51°16' E 004°21'0 0.0
2018-Aug-17 06:28N 51°16' E 004°21'0 0.0
2018-Aug-17 05:55N 51°16' E 004°21'0 0.0
2018-Aug-17 05:25N 51°16' E 004°21'0 0.0
2018-Aug-17 04:58N 51°16' E 004°21'0 0.0
2018-Aug-17 04:22N 51°16' E 004°21'0 0.0
2018-Aug-17 03:58N 51°16' E 004°21'0 0.0
2018-Aug-17 03:25N 51°16' E 004°21'0 0.0
2018-Aug-17 02:55N 51°16' E 004°21'0 0.0
2018-Aug-17 02:19N 51°16' E 004°21'0 0.0
2018-Aug-17 01:58N 51°16' E 004°21'0 0.0
2018-Aug-17 01:22N 51°16' E 004°21'0 0.0
2018-Aug-17 00:58N 51°16' E 004°21'0 0.0
2018-Aug-17 00:19N 51°16' E 004°21'0 0.0
2018-Aug-16 23:55N 51°16' E 004°21'0 0.0
2018-Aug-16 23:25N 51°16' E 004°21'0 0.0
2018-Aug-16 23:00N 51°16' E 004°21'1 1.9
2018-Aug-16 22:31N 51°16' E 004°20'3 5.5
2018-Aug-16 22:00N 51°19' E 004°19'2 3.9
2018-Aug-16 21:29N 51°21' E 004°17'0 0.0
2018-Aug-16 21:00N 51°21' E 004°17'0 0.7
2018-Aug-16 20:30N 51°21' E 004°16'3 6.1
2018-Aug-16 20:01N 51°23' E 004°13'5 9.3
2018-Aug-16 19:30N 51°22' E 004°06'510.7
2018-Aug-16 19:01N 51°26' E 003°60'612.0
2018-Aug-16 18:31N 51°21' E 003°54'612.2
2018-Aug-16 18:00N 51°22' E 003°44'611.3
2018-Aug-16 17:31N 51°26' E 003°38'5 9.3
2018-Aug-16 17:01N 51°25' E 003°31'4 8.9
2018-Aug-16 16:30N 51°25' E 003°24'714.3
2018-Aug-16 16:00N 51°24' E 003°12'814.4
2018-Aug-16 15:29N 51°24' E 003°00'714.8
2018-Aug-16 14:59N 51°22' E 002°49'610.9
2018-Aug-16 14:27N 51°22' E 002°40'3 6.1
2018-Aug-16 13:58N 51°23' E 002°35'2 4.0
2018-Aug-16 13:28N 51°25' E 002°35'0 0.2
2018-Aug-16 12:58N 51°25' E 002°35'0 0.1
2018-Aug-16 12:19N 51°25' E 002°35'0 0.5
2018-Aug-16 11:58N 51°25' E 002°35'0 0.0
2018-Aug-16 11:13N 51°25' E 002°35'0 0.0
2018-Aug-16 10:49N 51°25' E 002°35'0 0.0
2018-Aug-16 10:28N 51°25' E 002°35'0 0.1
2018-Aug-16 09:55N 51°25' E 002°35'0 0.3
2018-Aug-16 09:22N 51°25' E 002°35'0 0.2
2018-Aug-16 08:58N 51°25' E 002°35'0 0.1
2018-Aug-16 08:22N 51°25' E 002°35'0 0.0
2018-Aug-16 07:58N 51°25' E 002°35'0 0.0
2018-Aug-16 07:28N 51°25' E 002°35'0 0.0
2018-Aug-16 06:52N 51°25' E 002°35'0 0.0
2018-Aug-16 06:25N 51°25' E 002°35'0 0.0
2018-Aug-16 05:58N 51°25' E 002°35'0 0.0
2018-Aug-16 05:28N 51°25' E 002°35'0 0.0
2018-Aug-16 04:58N 51°25' E 002°35'0 0.0
2018-Aug-16 04:28N 51°25' E 002°35'0 0.0
2018-Aug-16 03:58N 51°25' E 002°35'0 0.0
2018-Aug-16 03:25N 51°25' E 002°35'0 0.0
2018-Aug-16 02:58N 51°25' E 002°35'0 0.0
2018-Aug-16 02:19N 51°25' E 002°35'0 0.0
2018-Aug-16 01:52N 51°25' E 002°35'0 0.3
2018-Aug-16 01:25N 51°25' E 002°35'0 0.2
2018-Aug-16 00:58N 51°25' E 002°35'0 0.1
2018-Aug-16 00:28N 51°25' E 002°35'0 0.0
2018-Aug-15 23:52N 51°25' E 002°35'0 0.0
2018-Aug-15 23:22N 51°25' E 002°35'0 0.2
2018-Aug-15 22:31N 51°25' E 002°35'0 0.1
2018-Aug-15 22:28N 51°25' E 002°35'0 0.2
2018-Aug-15 21:55N 51°25' E 002°35'0 0.3
2018-Aug-15 21:28N 51°25' E 002°35'0 0.2
2018-Aug-15 20:58N 51°25' E 002°35'0 0.1
2018-Aug-15 20:28N 51°25' E 002°35'0 0.0
2018-Aug-15 19:58N 51°25' E 002°35'0 0.0
2018-Aug-15 19:22N 51°25' E 002°35'0 0.0
2018-Aug-15 18:58N 51°25' E 002°35'0 0.0
2018-Aug-15 18:28N 51°25' E 002°35'0 0.0
2018-Aug-15 17:58N 51°25' E 002°35'0 0.1
2018-Aug-15 17:28N 51°25' E 002°35'0 0.0
2018-Aug-15 16:58N 51°25' E 002°35'0 0.0
2018-Aug-15 16:25N 51°25' E 002°35'0 0.0
2018-Aug-15 15:58N 51°25' E 002°35'0 0.0
2018-Aug-15 15:28N 51°25' E 002°35'0 0.0
2018-Aug-15 14:58N 51°25' E 002°35'0 0.0
2018-Aug-15 14:28N 51°25' E 002°35'0 0.1
2018-Aug-15 13:58N 51°25' E 002°35'0 0.3
2018-Aug-15 13:28N 51°25' E 002°35'0 0.2
2018-Aug-15 12:58N 51°25' E 002°35'0 0.0
2018-Aug-15 12:22N 51°25' E 002°35'0 0.0
2018-Aug-15 11:58N 51°25' E 002°35'0 0.0
2018-Aug-15 11:16N 51°25' E 002°35'0 0.0
2018-Aug-15 10:49N 51°25' E 002°35'0 0.0
2018-Aug-15 10:28N 51°25' E 002°35'0 0.1
2018-Aug-15 09:10N 51°25' E 002°35'0 0.1
2018-Aug-15 08:58N 51°25' E 002°35'0 0.2
2018-Aug-15 07:46N 51°25' E 002°35'0 0.0
2018-Aug-15 07:28N 51°25' E 002°35'0 0.1
2018-Aug-15 06:58N 51°25' E 002°35'0 0.0
2018-Aug-15 06:25N 51°25' E 002°35'0 0.0
2018-Aug-15 05:58N 51°25' E 002°35'0 0.0
2018-Aug-15 05:28N 51°25' E 002°35'0 0.0
2018-Aug-15 04:43N 51°25' E 002°35'0 0.1
2018-Aug-15 04:28N 51°25' E 002°35'0 0.0
2018-Aug-15 03:46N 51°25' E 002°35'0 0.1
2018-Aug-15 03:28N 51°25' E 002°35'0 0.0
2018-Aug-15 02:58N 51°25' E 002°35'0 0.0
2018-Aug-15 02:25N 51°25' E 002°35'0 0.0
2018-Aug-15 01:58N 51°25' E 002°35'0 0.1
2018-Aug-15 01:25N 51°25' E 002°35'0 0.3
2018-Aug-15 00:58N 51°25' E 002°35'0 0.2
2018-Aug-15 00:28N 51°25' E 002°35'0 0.1
2018-Aug-14 23:49N 51°25' E 002°35'0 0.0
2018-Aug-14 23:16N 51°25' E 002°35'0 0.0
2018-Aug-14 22:28N 51°25' E 002°35'0 0.1
2018-Aug-14 21:40N 51°25' E 002°35'0 0.1
2018-Aug-14 21:28N 51°25' E 002°35'0 0.1
2018-Aug-14 20:46N 51°25' E 002°35'0 0.3
2018-Aug-14 20:25N 51°25' E 002°35'0 0.3
2018-Aug-14 19:58N 51°25' E 002°35'0 0.1
2018-Aug-14 19:28N 51°25' E 002°35'0 0.0
2018-Aug-14 18:58N 51°25' E 002°35'0 0.0
2018-Aug-14 18:28N 51°25' E 002°35'0 0.0
2018-Aug-14 17:58N 51°25' E 002°35'0 0.0
2018-Aug-14 17:25N 51°25' E 002°35'0 0.0
2018-Aug-14 16:55N 51°25' E 002°35'0 0.0
2018-Aug-14 16:25N 51°25' E 002°35'0 0.0
2018-Aug-14 15:58N 51°25' E 002°35'0 0.0
2018-Aug-14 15:28N 51°25' E 002°35'0 0.0
2018-Aug-14 14:52N 51°25' E 002°35'0 0.0
2018-Aug-14 14:25N 51°25' E 002°35'0 0.1
2018-Aug-14 13:55N 51°25' E 002°35'0 0.1
2018-Aug-14 13:28N 51°25' E 002°35'0 0.2
2018-Aug-14 12:58N 51°25' E 002°35'0 0.3
2018-Aug-14 12:28N 51°25' E 002°35'0 0.0
2018-Aug-14 11:37N 51°25' E 002°35'0 0.0
2018-Aug-14 11:25N 51°25' E 002°35'0 0.0
2018-Aug-14 10:52N 51°25' E 002°35'0 0.0
2018-Aug-14 10:28N 51°25' E 002°35'0 0.0
2018-Aug-14 09:25N 51°25' E 002°35'0 0.0
2018-Aug-14 07:55N 51°25' E 002°35'0 0.2
2018-Aug-14 07:22N 51°25' E 002°35'0 0.4
2018-Aug-14 06:55N 51°25' E 002°35'0 0.1
2018-Aug-14 06:25N 51°25' E 002°35'0 0.1
2018-Aug-14 05:55N 51°25' E 002°35'0 0.0
2018-Aug-14 05:28N 51°25' E 002°35'0 0.0
2018-Aug-14 04:58N 51°25' E 002°35'0 0.0
2018-Aug-14 04:28N 51°25' E 002°35'0 0.0
2018-Aug-14 03:55N 51°25' E 002°35'0 0.0
2018-Aug-14 03:28N 51°25' E 002°35'0 0.0
2018-Aug-14 02:58N 51°25' E 002°35'0 0.0
2018-Aug-14 02:25N 51°25' E 002°35'0 0.0
2018-Aug-14 01:58N 51°25' E 002°35'0 0.0
2018-Aug-14 01:22N 51°25' E 002°35'0 0.2
2018-Aug-14 00:46N 51°25' E 002°35'0 0.1
2018-Aug-14 00:28N 51°25' E 002°35'0 0.3
2018-Aug-13 23:46N 51°25' E 002°35'0 0.1
2018-Aug-13 23:19N 51°25' E 002°35'0 0.0
2018-Aug-13 22:55N 51°25' E 002°35'0 0.0
2018-Aug-13 21:55N 51°25' E 002°35'0 0.0
2018-Aug-13 21:22N 51°25' E 002°35'0 0.0
2018-Aug-13 20:55N 51°25' E 002°35'0 0.1
2018-Aug-13 20:28N 51°25' E 002°35'0 0.1
2018-Aug-13 19:58N 51°25' E 002°35'0 0.4
2018-Aug-13 19:28N 51°25' E 002°35'0 0.2
2018-Aug-13 18:58N 51°25' E 002°35'0 0.0
2018-Aug-13 17:49N 51°25' E 002°35'0 0.0
2018-Aug-13 17:28N 51°25' E 002°35'0 0.1
2018-Aug-13 16:58N 51°25' E 002°35'0 0.0
2018-Aug-13 16:28N 51°25' E 002°35'0 0.0
2018-Aug-13 15:52N 51°25' E 002°35'0 0.0
2018-Aug-13 15:22N 51°25' E 002°35'0 0.0
2018-Aug-13 14:58N 51°25' E 002°35'0 0.0
2018-Aug-13 14:28N 51°25' E 002°35'0 0.0
2018-Aug-13 13:58N 51°25' E 002°35'0 0.0
2018-Aug-13 13:28N 51°25' E 002°35'0 0.0
2018-Aug-13 12:58N 51°25' E 002°35'0 0.1
2018-Aug-13 12:28N 51°25' E 002°35'0 0.4
2018-Aug-13 11:58N 51°25' E 002°35'0 0.2
2018-Aug-13 11:25N 51°25' E 002°35'0 0.0
2018-Aug-13 10:22N 51°25' E 002°35'0 0.0
2018-Aug-13 09:58N 51°25' E 002°35'0 0.2
2018-Aug-13 09:22N 51°25' E 002°35'1 2.5
2018-Aug-13 08:53N 51°24' E 002°34'3 7.6
2018-Aug-13 08:30N 51°22' E 002°30'5 9.7
2018-Aug-13 07:59N 51°20' E 002°23'510.2
2018-Aug-13 07:30N 51°18' E 002°16'510.7
2018-Aug-13 07:00N 51°15' E 002°09'510.9
2018-Aug-13 06:30N 51°12' E 002°01'611.1
2018-Aug-13 06:01N 51°09' E 001°54'611.2
2018-Aug-13 05:31N 51°06' E 001°46'611.7
2018-Aug-13 05:00N 51°02' E 001°39'612.1
2018-Aug-13 04:30N 50°58' E 001°32'612.8
2018-Aug-13 04:00N 50°52' E 001°27'1012.8
2018-Aug-13 03:15N 50°43' E 001°23'13913.4
2018-Aug-12 16:52N 49°58' W 002°03'43 9.2
2018-Aug-12 12:12N 49°45' W 003°06'410.4
2018-Aug-12 11:51N 49°43' W 003°11'410.5
2018-Aug-12 11:30N 49°41' W 003°16'13312.9
2018-Aug-12 01:12N 48°22' W 005°59'312.7
2018-Aug-12 00:59N 48°20' W 006°01'812.4
2018-Aug-12 00:20N 48°13' W 006°07'412.1
2018-Aug-11 23:58N 48°09' W 006°10'1411.7
2018-Aug-11 22:49N 47°58' W 006°20'1111.2
2018-Aug-11 21:48N 47°48' W 006°29'810.1
2018-Aug-11 20:59N 47°41' W 006°35'1410.2
2018-Aug-11 19:38N 47°29' W 006°45'50411.2
2018-Aug-09 22:32N 39°24' W 009°55'110.2
2018-Aug-09 22:27N 39°23' W 009°55'4 9.6
2018-Aug-09 22:00N 39°19' W 009°56'510.1
2018-Aug-09 21:30N 39°14' W 009°56'510.0
2018-Aug-09 21:00N 39°09' W 009°56'5 9.9
2018-Aug-09 20:30N 39°04' W 009°56'510.0
2018-Aug-09 20:01N 38°59' W 009°56'510.0
2018-Aug-09 19:30N 38°54' W 009°56'510.1
2018-Aug-09 19:00N 38°49' W 009°56'5 9.8
2018-Aug-09 18:31N 38°44' W 009°56'510.0
2018-Aug-09 18:01N 38°39' W 009°55'510.1
2018-Aug-09 17:30N 38°34' W 009°53'510.0
2018-Aug-09 17:01N 38°29' W 009°52'510.0
2018-Aug-09 16:30N 38°24' W 009°51'5 9.9
2018-Aug-09 16:01N 38°19' W 009°49'5 9.9
2018-Aug-09 15:31N 38°15' W 009°48'5 9.9
2018-Aug-09 15:00N 38°10' W 009°46'5 9.9
2018-Aug-09 14:31N 38°05' W 009°45'510.0
2018-Aug-09 14:01N 37°60' W 009°44'  

Dump ship's entire track history